Time,TemperatureF,DewpointF,PressureIn,WindDirection,WindDirectionDegrees,WindSpeedMPH,WindSpeedGustMPH,Humidity,HourlyPrecipIn,Conditions,Clouds,dailyrainin,SoftwareType,DateUTC
2013-05-17 00:01:00,56.0,51.0,-100.00,South,190,1.0,2.0,84,-99.99,,,0.00,,2013-05-17 06:01:00,
2013-05-17 00:11:00,56.0,51.0,-100.00,North,10,4.0,6.0,83,-99.99,,,0.00,,2013-05-17 06:11:00,
2013-05-17 00:21:00,56.0,51.0,-100.00,North,10,4.0,6.0,83,-99.99,,,0.00,,2013-05-17 06:21:00,
2013-05-17 00:32:00,56.0,51.0,-100.00,North,10,4.0,6.0,83,-99.99,,,0.00,,2013-05-17 06:32:00,
2013-05-17 00:42:00,56.0,51.0,-100.00,North,10,4.0,6.0,83,-99.99,,,0.00,,2013-05-17 06:42:00,
2013-05-17 00:51:00,55.0,50.0,-100.00,North,355,4.0,7.0,83,-99.99,,,0.00,,2013-05-17 06:51:00,
2013-05-17 01:02:00,55.0,50.0,-100.00,North,355,4.0,7.0,83,-99.99,,,0.00,,2013-05-17 07:02:00,
2013-05-17 01:11:00,55.0,50.0,-100.00,NNW,340,6.0,10.0,83,-99.99,,,0.00,,2013-05-17 07:11:00,
2013-05-17 01:21:00,55.0,50.0,-100.00,NNW,340,6.0,10.0,83,-99.99,,,0.00,,2013-05-17 07:21:00,
2013-05-17 01:32:00,55.0,50.0,-100.00,NNW,340,6.0,10.0,83,-99.99,,,0.00,,2013-05-17 07:32:00,
2013-05-17 01:43:00,55.0,50.0,-100.00,NNW,340,6.0,10.0,83,-99.99,,,0.00,,2013-05-17 07:43:00,
2013-05-17 01:53:00,55.0,50.0,-100.00,North,0,4.0,9.0,83,-99.99,,,0.00,,2013-05-17 07:53:00,
2013-05-17 02:02:00,55.0,50.0,-100.00,North,0,4.0,9.0,83,-99.99,,,0.00,,2013-05-17 08:02:00,
2013-05-17 02:12:00,55.0,50.0,-100.00,NE,45,3.0,4.0,82,-99.99,,,0.00,,2013-05-17 08:12:00,
2013-05-17 02:22:00,55.0,50.0,-100.00,NE,45,3.0,4.0,82,-99.99,,,0.00,,2013-05-17 08:22:00,
2013-05-17 02:33:00,55.0,50.0,-100.00,NE,45,3.0,4.0,82,-99.99,,,0.00,,2013-05-17 08:33:00,
2013-05-17 02:42:00,55.0,50.0,-100.00,NE,45,3.0,4.0,82,-99.99,,,0.00,,2013-05-17 08:42:00,
2013-05-17 02:51:00,54.0,49.0,-100.00,NNE,30,3.0,4.0,82,-99.99,,,0.00,,2013-05-17 08:51:00,
2013-05-17 03:02:00,54.0,49.0,-100.00,NNE,30,3.0,4.0,82,-99.99,,,0.00,,2013-05-17 09:02:00,
2013-05-17 03:12:00,54.0,49.0,-100.00,WNW,285,3.0,4.0,82,-99.99,,,0.00,,2013-05-17 09:12:00,
2013-05-17 03:22:00,54.0,49.0,-100.00,WNW,285,3.0,4.0,82,-99.99,,,0.00,,2013-05-17 09:22:00,
2013-05-17 03:33:00,54.0,49.0,-100.00,WNW,285,3.0,4.0,82,-99.99,,,0.00,,2013-05-17 09:33:00,
2013-05-17 03:42:00,54.0,49.0,-100.00,WNW,285,3.0,4.0,82,-99.99,,,0.00,,2013-05-17 09:42:00,
2013-05-17 03:53:00,54.0,49.0,-100.00,South,185,3.0,4.0,83,-99.99,,,0.00,,2013-05-17 09:53:00,
2013-05-17 04:03:00,54.0,49.0,-100.00,South,185,3.0,4.0,83,-99.99,,,0.00,,2013-05-17 10:03:00,
2013-05-17 04:12:00,54.0,49.0,-100.00,West,280,4.0,6.0,83,-99.99,,,0.00,,2013-05-17 10:12:00,
2013-05-17 04:23:00,54.0,49.0,-100.00,West,280,4.0,6.0,83,-99.99,,,0.00,,2013-05-17 10:23:00,
2013-05-17 04:32:00,54.0,49.0,-100.00,West,280,4.0,6.0,83,-99.99,,,0.00,,2013-05-17 10:32:00,
2013-05-17 04:42:00,54.0,49.0,-100.00,West,280,4.0,6.0,83,-99.99,,,0.00,,2013-05-17 10:42:00,
2013-05-17 04:53:00,54.0,47.0,-100.00,NNW,345,2.0,6.0,79,-99.99,,,0.00,,2013-05-17 10:53:00,
2013-05-17 05:02:00,54.0,47.0,-100.00,NNW,345,2.0,6.0,79,-99.99,,,0.00,,2013-05-17 11:02:00,
2013-05-17 05:12:00,53.0,48.0,-100.00,WNW,300,4.0,6.0,82,-99.99,,,0.00,,2013-05-17 11:12:00,
2013-05-17 05:22:00,53.0,48.0,-100.00,WNW,300,4.0,6.0,82,-99.99,,,0.00,,2013-05-17 11:22:00,
2013-05-17 05:34:00,53.0,48.0,-100.00,WNW,300,4.0,6.0,82,-99.99,,,0.00,,2013-05-17 11:34:00,
2013-05-17 05:42:00,53.0,48.0,-100.00,WNW,300,4.0,6.0,82,-99.99,,,0.00,,2013-05-17 11:42:00,
2013-05-17 05:52:00,53.0,48.0,-100.00,West,260,3.0,5.0,82,-99.99,,,0.00,,2013-05-17 11:52:00,
2013-05-17 06:03:00,53.0,48.0,-100.00,West,260,3.0,5.0,82,-99.99,,,0.00,,2013-05-17 12:03:00,
2013-05-17 06:12:00,53.0,48.0,-100.00,WSW,240,3.0,4.0,82,-99.99,,,0.00,,2013-05-17 12:12:00,
2013-05-17 06:23:00,53.0,48.0,-100.00,WSW,240,3.0,4.0,82,-99.99,,,0.00,,2013-05-17 12:23:00,
2013-05-17 06:32:00,53.0,48.0,-100.00,WSW,240,3.0,4.0,82,-99.99,,,0.00,,2013-05-17 12:32:00,
2013-05-17 06:42:00,53.0,48.0,-100.00,WSW,240,3.0,4.0,82,-99.99,,,0.00,,2013-05-17 12:42:00,
2013-05-17 06:53:00,53.0,48.0,-100.00,SW,230,5.0,8.0,84,-99.99,,,0.00,,2013-05-17 12:53:00,
2013-05-17 07:03:00,53.0,48.0,-100.00,SW,230,5.0,8.0,84,-99.99,,,0.00,,2013-05-17 13:03:00,
2013-05-17 07:12:00,53.0,49.0,-100.00,SW,230,6.0,8.0,84,-99.99,,,0.00,,2013-05-17 13:12:00,
2013-05-17 07:23:00,53.0,49.0,-100.00,SW,230,6.0,8.0,84,-99.99,,,0.00,,2013-05-17 13:23:00,
2013-05-17 07:33:00,53.0,49.0,-100.00,SW,230,6.0,8.0,84,-99.99,,,0.00,,2013-05-17 13:33:00,
2013-05-17 07:42:00,53.0,49.0,-100.00,SW,230,6.0,8.0,84,-99.99,,,0.00,,2013-05-17 13:42:00,
2013-05-17 07:52:00,54.0,48.0,-100.00,SW,220,4.0,6.0,82,-99.99,,,0.00,,2013-05-17 13:52:00,
2013-05-17 08:02:00,54.0,48.0,-100.00,SW,220,4.0,6.0,82,-99.99,,,0.00,,2013-05-17 14:02:00,
2013-05-17 08:12:00,56.0,49.0,-100.00,WSW,245,6.0,8.0,77,-99.99,,,0.00,,2013-05-17 14:12:00,
2013-05-17 08:22:00,56.0,49.0,-100.00,WSW,245,6.0,8.0,77,-99.99,,,0.00,,2013-05-17 14:22:00,
2013-05-17 08:34:00,56.0,49.0,-100.00,WSW,245,6.0,8.0,77,-99.99,,,0.00,,2013-05-17 14:34:00,
2013-05-17 08:42:00,56.0,49.0,-100.00,WSW,245,6.0,8.0,77,-99.99,,,0.00,,2013-05-17 14:42:00,
2013-05-17 08:46:00,59.0,46.0,-100.00,SW,235,3.0,4.0,61,-99.99,,,0.00,,2013-05-17 14:46:00,
2013-05-17 08:53:00,58.0,47.0,-100.00,West,275,2.0,6.0,69,-99.99,,,0.00,,2013-05-17 14:53:00,
2013-05-17 09:03:00,58.0,47.0,-100.00,West,275,2.0,6.0,69,-99.99,,,0.00,,2013-05-17 15:03:00,
2013-05-17 09:13:00,59.0,46.0,-100.00,SW,235,3.0,4.0,61,-99.99,,,0.00,,2013-05-17 15:13:00,
2013-05-17 09:25:00,59.0,46.0,-100.00,SW,235,3.0,4.0,61,-99.99,,,0.00,,2013-05-17 15:25:00,
2013-05-17 09:37:00,59.0,46.0,-100.00,SW,235,3.0,4.0,61,-99.99,,,0.00,,2013-05-17 15:37:00,
2013-05-17 09:46:00,60.0,44.0,-100.00,NW,310,1.0,5.0,57,-99.99,,,0.00,,2013-05-17 15:46:00,
2013-05-17 09:56:00,59.0,45.0,-100.00,WNW,290,4.0,6.0,59,-99.99,,,0.00,,2013-05-17 15:56:00,
2013-05-17 10:07:00,59.0,45.0,-100.00,WNW,290,4.0,6.0,59,-99.99,,,0.00,,2013-05-17 16:07:00,
2013-05-17 10:13:00,60.0,44.0,-100.00,NW,310,1.0,5.0,57,-99.99,,,0.00,,2013-05-17 16:13:00,
2013-05-17 10:26:00,60.0,44.0,-100.00,NW,310,1.0,5.0,57,-99.99,,,0.00,,2013-05-17 16:26:00,
2013-05-17 10:37:00,60.0,44.0,-100.00,NW,310,1.0,5.0,57,-99.99,,,0.00,,2013-05-17 16:37:00,
2013-05-17 10:46:00,56.0,50.0,-100.00,SSW,195,6.0,8.0,81,-99.99,,,0.00,,2013-05-17 16:46:00,
2013-05-17 10:56:00,59.0,46.0,-100.00,SW,225,5.0,8.0,63,-99.99,,,0.00,,2013-05-17 16:56:00,
2013-05-17 11:08:00,59.0,46.0,-100.00,SW,225,5.0,8.0,63,-99.99,,,0.00,,2013-05-17 17:08:00,
2013-05-17 11:18:00,56.0,50.0,-100.00,SSW,195,6.0,8.0,81,-99.99,,,0.00,,2013-05-17 17:18:00,
2013-05-17 11:29:00,56.0,50.0,-100.00,SSW,195,6.0,8.0,81,-99.99,,,0.00,,2013-05-17 17:29:00,
2013-05-17 11:40:00,56.0,-99.9,-100.00,SSW,195,6.0,8.0,81,-99.99,,,0.00,,2013-05-17 17:40:00,
2013-05-17 11:47:00,-999.0,-99.9,-100.00,South,185,4.0,6.0,86,-99.99,,,0.00,,2013-05-17 17:47:00,
2013-05-17 12:00:00,55.0,51.0,-100.00,WSW,245,3.0,5.0,85,-99.99,,,0.00,,2013-05-17 18:00:00,
2013-05-17 12:08:00,55.0,51.0,-100.00,WSW,245,3.0,5.0,85,-99.99,,,0.00,,2013-05-17 18:08:00,
2013-05-17 12:20:00,55.0,51.0,-100.00,South,185,4.0,6.0,86,-99.99,,,0.00,,2013-05-17 18:20:00,
2013-05-17 12:30:00,55.0,51.0,-100.00,South,185,4.0,6.0,86,-99.99,,,0.00,,2013-05-17 18:30:00,
2013-05-17 12:40:00,55.0,-99.9,-100.00,South,185,4.0,6.0,86,-99.99,,,0.00,,2013-05-17 18:40:00,
2013-05-17 12:46:00,58.0,54.0,-100.00,NNW,335,0.0,1.0,86,-99.99,,,0.00,,2013-05-17 18:46:00,
2013-05-17 13:00:00,55.0,51.0,-100.00,WSW,240,1.0,3.0,87,-99.99,,,0.00,,2013-05-17 19:00:00,
2013-05-17 13:10:00,55.0,51.0,-100.00,WSW,240,1.0,3.0,87,-99.99,,,0.00,,2013-05-17 19:10:00,
2013-05-17 13:20:00,58.0,54.0,-100.00,NNW,335,0.0,1.0,86,-99.99,,,0.00,,2013-05-17 19:20:00,
2013-05-17 13:30:00,58.0,54.0,-100.00,NNW,335,0.0,1.0,86,-99.99,,,0.00,,2013-05-17 19:30:00,
2013-05-17 13:40:00,58.0,54.0,-100.00,NNW,335,0.0,1.0,86,-99.99,,,0.00,,2013-05-17 19:40:00,
2013-05-17 13:47:00,61.0,50.0,-100.00,North,5,6.0,9.0,68,-99.99,,,0.00,,2013-05-17 19:47:00,
2013-05-17 14:20:00,61.0,50.0,-100.00,North,5,6.0,9.0,68,-99.99,,,0.00,,2013-05-17 20:20:00,
2013-05-17 14:30:00,61.0,50.0,-100.00,North,5,6.0,9.0,68,-99.99,,,0.00,,2013-05-17 20:30:00,
2013-05-17 14:40:00,61.0,50.0,-100.00,North,5,6.0,9.0,68,-99.99,,,0.00,,2013-05-17 20:40:00,
2013-05-17 14:46:00,61.0,51.0,-100.00,ENE,65,4.0,8.0,71,-99.99,,,0.00,,2013-05-17 20:46:00,
2013-05-17 15:16:00,61.0,51.0,-100.00,ENE,65,4.0,8.0,71,-99.99,,,0.00,,2013-05-17 21:16:00,
2013-05-17 15:26:00,61.0,51.0,-100.00,ENE,65,4.0,8.0,71,-99.99,,,0.00,,2013-05-17 21:26:00,
2013-05-17 15:39:00,61.0,51.0,-100.00,ENE,65,4.0,8.0,71,-99.99,,,0.00,,2013-05-17 21:39:00,
2013-05-17 15:46:00,59.0,53.0,-100.00,ENE,60,6.0,12.0,83,-99.99,,,0.00,,2013-05-17 21:46:00,
2013-05-17 15:57:00,59.0,52.0,-100.00,East,95,7.0,12.0,77,-99.99,,,0.00,,2013-05-17 21:57:00,
2013-05-17 16:06:00,59.0,52.0,-100.00,East,95,7.0,12.0,77,-99.99,,,0.00,,2013-05-17 22:06:00,
2013-05-17 16:17:00,59.0,53.0,-100.00,ENE,60,6.0,12.0,83,-99.99,,,0.00,,2013-05-17 22:17:00,
2013-05-17 16:28:00,59.0,53.0,-100.00,ENE,60,6.0,12.0,83,-99.99,,,0.00,,2013-05-17 22:28:00,
2013-05-17 16:38:00,59.0,53.0,-100.00,ENE,60,6.0,12.0,83,-99.99,,,0.00,,2013-05-17 22:38:00,
2013-05-17 16:47:00,58.0,54.0,-100.00,NE,45,6.0,9.0,85,-99.99,,,0.00,,2013-05-17 22:47:00,
2013-05-17 16:54:00,59.0,54.0,-100.00,ENE,60,4.0,6.0,84,-99.99,,,0.00,,2013-05-17 22:54:00,
2013-05-17 17:04:00,59.0,54.0,-100.00,ENE,60,4.0,6.0,84,-99.99,,,0.00,,2013-05-17 23:04:00,
2013-05-17 17:13:00,58.0,54.0,-100.00,NE,45,6.0,9.0,85,-99.99,,,0.00,,2013-05-17 23:13:00,
2013-05-17 17:23:00,58.0,54.0,-100.00,NE,45,6.0,9.0,85,-99.99,,,0.00,,2013-05-17 23:23:00,
2013-05-17 17:37:00,58.0,54.0,-100.00,NE,45,6.0,9.0,85,-99.99,,,0.00,,2013-05-17 23:37:00,
2013-05-17 17:54:00,58.0,53.0,-100.00,ENE,65,3.0,8.0,86,-99.99,,,0.00,,2013-05-17 23:54:00,
2013-05-17 18:02:00,58.0,53.0,-100.00,ENE,65,3.0,8.0,86,-99.99,,,0.00,,2013-05-18 00:02:00,
2013-05-17 18:14:00,57.0,53.0,-100.00,NE,50,4.0,6.0,86,-99.99,,,0.00,,2013-05-18 00:14:00,
2013-05-17 18:21:00,57.0,53.0,-100.00,NE,50,4.0,6.0,86,-99.99,,,0.00,,2013-05-18 00:21:00,
2013-05-17 18:33:00,57.0,53.0,-100.00,NE,50,4.0,6.0,86,-99.99,,,0.00,,2013-05-18 00:33:00,
2013-05-17 18:44:00,57.0,53.0,-100.00,NE,50,4.0,6.0,86,-99.99,,,0.00,,2013-05-18 00:44:00,
2013-05-17 18:54:00,56.0,52.0,-100.00,East,80,4.0,8.0,86,-99.99,,,0.00,,2013-05-18 00:54:00,
2013-05-17 19:02:00,56.0,52.0,-100.00,East,80,4.0,8.0,86,-99.99,,,0.00,,2013-05-18 01:02:00,
2013-05-17 19:13:00,57.0,53.0,-100.00,SE,135,3.0,4.0,86,-99.99,,,0.00,,2013-05-18 01:13:00,
2013-05-17 19:24:00,57.0,53.0,-100.00,SE,135,3.0,4.0,86,-99.99,,,0.00,,2013-05-18 01:24:00,
2013-05-17 19:31:00,57.0,53.0,-100.00,SE,135,3.0,4.0,86,-99.99,,,0.00,,2013-05-18 01:31:00,
2013-05-17 19:42:00,57.0,53.0,-100.00,SE,135,3.0,4.0,86,-99.99,,,0.00,,2013-05-18 01:42:00,
2013-05-17 19:52:00,57.0,53.0,-100.00,ENE,75,6.0,8.0,86,-99.99,,,0.00,,2013-05-18 01:52:00,
2013-05-17 20:31:00,57.0,53.0,-100.00,ENE,65,4.0,6.0,86,-99.99,,,0.00,,2013-05-18 02:31:00,
2013-05-17 20:42:00,57.0,53.0,-100.00,ENE,65,4.0,6.0,86,-99.99,,,0.00,,2013-05-18 02:42:00,
2013-05-17 20:53:00,57.0,53.0,-100.00,NNE,25,6.0,8.0,86,-99.99,,,0.00,,2013-05-18 02:53:00,
2013-05-17 21:02:00,57.0,53.0,-100.00,NNE,25,6.0,8.0,86,-99.99,,,0.00,,2013-05-18 03:02:00,
2013-05-17 21:12:00,56.0,52.0,-100.00,SW,225,0.0,3.0,86,-99.99,,,0.00,,2013-05-18 03:12:00,
2013-05-17 21:22:00,56.0,52.0,-100.00,SW,225,0.0,3.0,86,-99.99,,,0.00,,2013-05-18 03:22:00,
2013-05-17 21:32:00,56.0,52.0,-100.00,SW,225,0.0,3.0,86,-99.99,,,0.00,,2013-05-18 03:32:00,
2013-05-17 21:43:00,56.0,52.0,-100.00,SW,225,0.0,3.0,86,-99.99,,,0.00,,2013-05-18 03:43:00,
2013-05-17 21:53:00,56.0,52.0,-100.00,North,-999,0.0,0.0,86,-99.99,,,0.00,,2013-05-18 03:53:00,
2013-05-17 22:02:00,56.0,52.0,-100.00,North,-999,0.0,0.0,86,-99.99,,,0.00,,2013-05-18 04:02:00,
2013-05-17 22:12:00,56.0,52.0,-100.00,SE,130,4.0,5.0,86,-99.99,,,0.00,,2013-05-18 04:12:00,
2013-05-17 22:23:00,56.0,52.0,-100.00,SE,130,4.0,5.0,86,-99.99,,,0.00,,2013-05-18 04:23:00,
2013-05-17 22:32:00,56.0,52.0,-100.00,SE,130,4.0,5.0,86,-99.99,,,0.00,,2013-05-18 04:32:00,
2013-05-17 22:42:00,56.0,52.0,-100.00,SE,130,4.0,5.0,86,-99.99,,,0.00,,2013-05-18 04:42:00,
2013-05-17 22:52:00,54.0,50.0,-100.00,SSW,200,2.0,6.0,87,-99.99,,,0.00,,2013-05-18 04:52:00,
2013-05-17 23:02:00,54.0,50.0,-100.00,SSW,200,2.0,6.0,87,-99.99,,,0.00,,2013-05-18 05:02:00,
2013-05-17 23:12:00,53.0,49.0,-100.00,SE,145,3.0,3.0,87,-99.99,,,0.00,,2013-05-18 05:12:00,
2013-05-17 23:22:00,53.0,49.0,-100.00,SE,145,3.0,3.0,87,-99.99,,,0.00,,2013-05-18 05:22:00,
2013-05-17 23:31:00,53.0,49.0,-100.00,SE,145,3.0,3.0,87,-99.99,,,0.00,,2013-05-18 05:31:00,
2013-05-17 23:41:00,53.0,49.0,-100.00,SE,145,3.0,3.0,87,-99.99,,,0.00,,2013-05-18 05:41:00,
2013-05-17 23:51:00,51.0,48.0,-100.00,South,175,1.0,2.0,87,-99.99,,,0.00,,2013-05-18 05:51:00,